Time;durP1;ratioP1;P1;durP2;ratioP2;P2;SDS_P1;SDS_P2;PMS_P1;PMS_P2;Temp;Humidity;BMP_temperature;BMP_pressure;BME280_temperature;BME280_humidity;BME280_pressure;Samples;Min_cycle;Max_cycle;Signal;HPM_P1;HPM_P2
2022/09/05 00:03:13;;;;;;;5.70;3.40;;;;;;;20.25;60.88;98446.06;8317703;28;20547;-78
2022/09/05 00:07:20;;;;;;;4.87;3.17;;;;;;;20.29;60.42;98445.69;8320742;28;20230;-78
2022/09/05 00:11:46;;;;;;;4.00;3.30;;;;;;;20.17;60.58;98440.56;8320644;28;20230;-78
2022/09/05 00:16:02;;;;;;;5.27;3.47;;;;;;;20.13;61.17;98439.13;8320040;28;20220;-77
2022/09/05 00:20:10;;;;;;;5.03;3.50;;;;;;;20.01;61.21;98438.25;8320520;28;20335;-78
2022/09/05 00:24:43;;;;;;;6.03;3.70;;;;;;;20.07;61.23;98438.63;8320083;28;20517;-78
2022/09/05 00:29:16;;;;;;;5.07;3.60;;;;;;;20.06;61.51;98433.47;8319855;28;20243;-78
2022/09/05 00:33:57;;;;;;;5.40;3.87;;;;;;;19.95;61.79;98430.81;8319959;28;20235;-78
2022/09/05 00:38:11;;;;;;;7.60;3.87;;;;;;;19.89;61.64;98440.84;8319580;28;20235;-78
2022/09/05 00:42:16;;;;;;;3.70;3.40;;;;;;;19.87;61.95;98441.91;8319891;28;20427;-78
2022/09/05 00:46:23;;;;;;;5.77;3.93;;;;;;;19.94;61.14;98451.03;8319531;28;20417;-78
2022/09/05 00:50:32;;;;;;;4.07;3.67;;;;;;;19.86;61.40;98458.66;8319500;28;20268;-78
2022/09/05 00:54:46;;;;;;;9.83;3.80;;;;;;;19.83;61.30;98451.81;8319473;28;20243;-78
2022/09/05 00:59:02;;;;;;;6.47;3.40;;;;;;;19.80;61.28;98456.47;8318923;28;20247;-77
2022/09/05 01:03:18;;;;;;;4.90;3.50;;;;;;;19.80;61.23;98457.31;8318480;28;20246;-77
2022/09/05 01:07:37;;;;;;;6.93;3.70;;;;;;;19.72;61.54;98451.78;8319210;28;20506;-78
2022/09/05 01:11:58;;;;;;;5.10;3.50;;;;;;;19.73;61.51;98456.09;8318006;28;20240;-78
2022/09/05 01:16:07;;;;;;;5.00;3.80;;;;;;;19.66;61.67;98450.41;8318531;28;20235;-78
2022/09/05 01:20:20;;;;;;;5.70;3.80;;;;;;;19.67;61.94;98459.16;8318401;28;20295;-77
2022/09/05 01:24:33;;;;;;;4.30;3.90;;;;;;;19.62;61.57;98448.97;8318620;28;20238;-78
2022/09/05 01:28:40;;;;;;;6.37;3.73;;;;;;;19.62;62.04;98450.75;8318489;28;20230;-78
2022/09/05 01:33:11;;;;;;;4.70;4.00;;;;;;;19.60;62.30;98457.91;8317704;28;20224;-78
2022/09/05 01:37:16;;;;;;;5.33;4.13;;;;;;;19.51;62.52;98454.16;8318135;28;20247;-78
2022/09/05 01:41:42;;;;;;;4.43;3.80;;;;;;;19.56;61.89;98457.31;8318120;28;20233;-78
2022/09/05 01:45:48;;;;;;;4.70;3.87;;;;;;;19.54;61.68;98456.56;8318015;28;20234;-78
2022/09/05 01:49:57;;;;;;;5.70;3.63;;;;;;;19.48;61.51;98446.53;8317350;28;20504;-78
2022/09/05 01:54:15;;;;;;;5.33;3.43;;;;;;;19.42;61.78;98457.47;8317744;28;20236;-78
2022/09/05 01:58:42;;;;;;;4.20;3.50;;;;;;;19.43;61.87;98456.53;8317473;28;20419;-78
2022/09/05 02:02:56;;;;;;;7.57;3.63;;;;;;;19.44;61.79;98453.78;8316999;28;20232;-78
2022/09/05 02:07:03;;;;;;;4.17;3.53;;;;;;;19.42;61.78;98455.69;8316828;28;20373;-78
2022/09/05 02:11:40;;;;;;;7.30;4.00;;;;;;;19.39;62.02;98457.69;8317135;28;20510;-78
2022/09/05 02:15:45;;;;;;;4.20;3.80;;;;;;;19.33;62.30;98457.19;8316981;28;20228;-78
2022/09/05 02:20:11;;;;;;;3.33;3.10;;;;;;;19.39;61.32;98457.69;8316488;28;20231;-78
2022/09/05 02:24:21;;;;;;;4.37;3.80;;;;;;;19.41;62.42;98456.63;8315839;28;20230;-78
2022/09/05 02:28:29;;;;;;;6.50;3.93;;;;;;;19.28;62.76;98454.03;8316574;28;20226;-78
2022/09/05 02:32:39;;;;;;;4.13;3.73;;;;;;;19.29;62.30;98450.50;8316531;28;20237;-78
2022/09/05 02:36:51;;;;;;;4.47;3.33;;;;;;;19.23;61.45;98444.81;8316501;28;20238;-78
2022/09/05 02:40:57;;;;;;;5.80;3.40;;;;;;;19.17;61.22;98453.97;8315865;28;20228;-78
2022/09/05 02:45:33;;;;;;;4.13;3.57;;;;;;;19.19;61.02;98459.13;8315976;28;20232;-78
2022/09/05 02:49:59;;;;;;;5.97;3.23;;;;;;;19.23;60.99;98453.56;8315900;28;20240;-78
2022/09/05 02:54:26;;;;;;;3.60;3.30;;;;;;;19.14;61.84;98443.72;8315453;28;20227;-78
2022/09/05 02:58:55;;;;;;;5.37;3.50;;;;;;;19.14;61.33;98449.78;8315139;28;20240;-77
2022/09/05 03:03:21;;;;;;;4.50;3.70;;;;;;;19.13;60.68;98447.28;8315266;28;20245;-77
2022/09/05 03:07:39;;;;;;;6.53;3.40;;;;;;;19.02;60.79;98447.19;8315596;28;20233;-78
2022/09/05 03:12:31;;;;;;;7.73;3.70;;;;;;;18.96;60.63;98443.22;8315317;28;20242;-78
2022/09/05 03:17:14;;;;;;;4.27;3.27;;;;;;;18.94;60.57;98442.50;8315214;28;20218;-78
2022/09/05 03:21:37;;;;;;;5.70;3.27;;;;;;;18.95;60.78;98438.94;8315004;28;20238;-78
2022/09/05 03:26:04;;;;;;;4.13;3.27;;;;;;;18.92;61.22;98439.16;8315082;28;20563;-77
2022/09/05 03:30:14;;;;;;;5.67;3.30;;;;;;;18.95;61.17;98438.94;8314630;28;20225;-77
2022/09/05 03:34:36;;;;;;;4.57;3.30;;;;;;;18.85;61.54;98436.13;8314554;28;20239;-78
2022/09/05 03:39:20;;;;;;;5.90;3.47;;;;;;;18.89;61.39;98442.00;8314842;28;20230;-77
2022/09/05 03:43:39;;;;;;;4.63;3.30;;;;;;;18.89;61.54;98440.22;8314480;28;20245;-77
2022/09/05 03:47:57;;;;;;;4.67;3.60;;;;;;;18.86;61.43;98440.44;8314503;28;20441;-77
2022/09/05 03:52:27;;;;;;;4.23;3.60;;;;;;;18.84;61.37;98436.25;8314278;28;20364;-78
2022/09/05 03:57:15;;;;;;;5.00;3.60;;;;;;;18.74;61.29;98428.16;8313758;28;20234;-77
2022/09/05 04:01:41;;;;;;;5.50;3.70;;;;;;;18.68;61.92;98418.09;8314455;28;20228;-77
2022/09/05 04:06:14;;;;;;;4.53;3.57;;;;;;;18.69;62.64;98412.72;8313946;28;20244;-78
2022/09/05 04:10:44;;;;;;;3.50;3.20;;;;;;;18.82;62.21;98425.03;8314418;28;20320;-78
2022/09/05 04:14:53;;;;;;;5.20;3.40;;;;;;;18.77;62.05;98417.44;8313723;28;20231;-78
2022/09/05 04:19:07;;;;;;;4.00;3.50;;;;;;;18.69;62.50;98417.13;8314091;28;20527;-78
2022/09/05 04:23:19;;;;;;;4.37;3.10;;;;;;;18.68;62.17;98415.47;8314129;28;20238;-77
2022/09/05 04:27:37;;;;;;;4.77;3.20;;;;;;;18.81;62.17;98433.81;8314026;28;20232;-77
2022/09/05 04:31:47;;;;;;;4.47;3.50;;;;;;;18.85;61.82;98438.75;8313963;28;20553;-77
2022/09/05 04:36:17;;;;;;;5.00;3.43;;;;;;;18.72;62.21;98433.50;8313663;28;20505;-77
2022/09/05 04:40:36;;;;;;;3.60;3.30;;;;;;;18.71;61.49;98446.72;8313724;28;20403;-78
2022/09/05 04:44:43;;;;;;;4.10;3.70;;;;;;;18.62;61.46;98455.22;8313767;28;20542;-78
2022/09/05 04:48:54;;;;;;;4.43;3.27;;;;;;;18.56;61.18;98449.50;8316757;28;20405;-79
2022/09/05 04:53:06;;;;;;;5.03;3.00;;;;;;;18.64;60.92;98458.59;8319441;28;20786;-78
2022/09/05 04:57:18;;;;;;;3.63;3.10;;;;;;;18.60;61.15;98462.38;8319821;28;20250;-77
2022/09/05 05:01:23;;;;;;;3.73;3.07;;;;;;;18.47;61.77;98468.47;8319727;28;20236;-78
2022/09/05 05:05:57;;;;;;;4.43;4.00;;;;;;;18.56;62.13;98466.97;8318964;28;20234;-78
2022/09/05 05:10:26;;;;;;;3.73;3.43;;;;;;;18.62;62.05;98463.97;8319145;28;20417;-77
2022/09/05 05:14:53;;;;;;;5.33;4.80;;;;;;;18.70;62.20;98463.44;8318626;28;20252;-78
2022/09/05 05:19:19;;;;;;;6.83;4.23;;;;;;;18.80;62.03;98474.97;8319070;28;20508;-77
2022/09/05 05:23:34;;;;;;;5.40;3.83;;;;;;;18.92;61.91;98479.38;8318955;28;20290;-77
2022/09/05 05:27:42;;;;;;;4.77;3.47;;;;;;;19.06;61.45;98481.03;8318811;28;20247;-78
2022/09/05 05:31:51;;;;;;;6.10;3.63;;;;;;;19.14;60.72;98498.84;8318858;28;20316;-77
2022/09/05 05:35:56;;;;;;;6.07;3.63;;;;;;;19.24;60.65;98496.41;8318330;28;20292;-77
2022/09/05 05:40:04;;;;;;;6.30;3.70;;;;;;;19.49;59.85;98498.09;8318341;28;20229;-78
2022/09/05 05:44:12;;;;;;;7.33;3.93;;;;;;;19.68;59.60;98503.69;8318254;28;20238;-78
2022/09/05 05:48:30;;;;;;;5.27;3.90;;;;;;;19.86;59.57;98506.78;8318062;28;20237;-78
2022/09/05 05:53:02;;;;;;;6.17;3.73;;;;;;;20.22;58.78;98504.13;8318020;28;20230;-79
2022/09/05 05:57:26;;;;;;;5.70;3.80;;;;;;;20.48;58.30;98496.91;8317635;28;20231;-79
2022/09/05 06:02:04;;;;;;;5.17;3.70;;;;;;;20.48;58.46;98500.38;8308079;28;20238;-78
2022/09/05 06:06:21;;;;;;;4.97;3.50;;;;;;;20.81;57.99;98497.91;8316999;28;20320;-78
2022/09/05 06:10:55;;;;;;;4.47;3.53;;;;;;;21.00;57.71;98490.25;8317663;28;20259;-78
2022/09/05 06:15:54;;;;;;;4.40;4.00;;;;;;;21.02;57.83;98498.88;8317202;28;20507;-77
2022/09/05 06:20:30;;;;;;;6.83;4.67;;;;;;;20.97;58.21;98511.56;8313218;28;20335;-78
2022/09/05 06:25:20;;;;;;;6.00;4.60;;;;;;;21.03;57.82;98511.06;8316293;28;20224;-77
2022/09/05 06:29:34;;;;;;;6.80;4.80;;;;;;;21.17;57.93;98520.53;8317133;28;20232;-78
2022/09/05 06:33:52;;;;;;;6.37;4.37;;;;;;;21.19;57.62;98520.38;8316677;28;20236;-77
2022/09/05 06:38:05;;;;;;;6.37;4.30;;;;;;;21.14;58.38;98519.94;8315329;28;20225;-78
2022/09/05 06:42:19;;;;;;;6.63;4.47;;;;;;;20.98;58.40;98510.59;8316258;28;20241;-78
2022/09/05 06:46:42;;;;;;;7.30;4.90;;;;;;;20.94;58.41;98519.69;8316259;28;20226;-77
2022/09/05 06:51:34;;;;;;;7.37;5.33;;;;;;;20.63;59.29;98535.22;8316060;28;20242;-78
2022/09/05 06:55:53;;;;;;;8.50;4.53;;;;;;;21.14;58.69;98533.09;8286593;28;20238;-78
2022/09/05 07:00:09;;;;;;;5.93;4.50;;;;;;;21.23;58.30;98538.47;8315832;28;20267;-77
2022/09/05 07:04:32;;;;;;;7.30;4.30;;;;;;;21.42;58.49;98539.66;8315564;28;20605;-77
2022/09/05 07:09:02;;;;;;;6.13;4.97;;;;;;;21.21;58.35;98536.91;8314062;28;20229;-79
2022/09/05 07:13:11;;;;;;;5.23;4.73;;;;;;;21.54;57.84;98543.13;8315094;28;20232;-79
2022/09/05 07:17:18;;;;;;;5.30;4.77;;;;;;;21.41;58.07;98537.97;8315229;28;20228;-78
2022/09/05 07:21:30;;;;;;;7.13;4.70;;;;;;;21.29;58.17;98542.41;8315391;28;20240;-79
2022/09/05 07:25:40;;;;;;;5.10;4.60;;;;;;;21.80;57.44;98531.31;8315532;28;20231;-78
2022/09/05 07:29:45;;;;;;;6.00;4.70;;;;;;;21.67;57.77;98536.72;8313610;28;20292;-79
2022/09/05 07:34:10;;;;;;;9.23;5.03;;;;;;;21.53;57.88;98539.63;8315158;28;20232;-80
2022/09/05 07:38:27;;;;;;;8.07;5.17;;;;;;;21.79;57.41;98534.06;8315589;28;20232;-78
2022/09/05 07:42:53;;;;;;;6.53;4.27;;;;;;;22.30;56.42;98541.31;8314824;28;20231;-80
2022/09/05 07:47:19;;;;;;;9.47;5.03;;;;;;;21.98;56.61;98539.50;8315381;28;20228;-81
2022/09/05 07:51:26;;;;;;;8.00;5.07;;;;;;;21.68;57.67;98534.94;8315040;28;20236;-76
2022/09/05 07:55:52;;;;;;;8.60;5.33;;;;;;;22.06;56.75;98538.88;8314481;28;20239;-79
2022/09/05 08:00:19;;;;;;;7.13;5.37;;;;;;;22.25;56.33;98536.41;8314717;28;20228;-80
2022/09/05 08:04:32;;;;;;;7.43;5.77;;;;;;;22.22;56.46;98533.16;8314633;28;20279;-82
2022/09/05 08:08:46;;;;;;;7.60;5.43;;;;;;;22.25;56.25;98528.47;8314749;28;20239;-77
2022/09/05 08:13:11;;;;;;;7.17;5.33;;;;;;;22.62;55.59;98532.47;8314170;28;20233;-78
2022/09/05 08:17:40;;;;;;;7.63;5.40;;;;;;;22.86;54.63;98534.81;8314403;28;20232;-79
2022/09/05 08:21:47;;;;;;;9.40;5.77;;;;;;;23.29;53.61;98535.56;8314347;28;20242;-77
2022/09/05 08:25:57;;;;;;;8.90;5.27;;;;;;;23.20;54.29;98531.91;8320350;28;20231;-78
2022/09/05 08:30:03;;;;;;;8.43;5.27;;;;;;;23.19;53.69;98528.44;8320284;28;20229;-80
2022/09/05 08:34:41;;;;;;;8.10;4.30;;;;;;;23.37;52.48;98527.78;8320291;28;20248;-82
2022/09/05 08:38:48;;;;;;;5.17;4.00;;;;;;;23.66;52.39;98527.00;8319965;28;20236;-78
2022/09/05 08:42:59;;;;;;;5.73;4.07;;;;;;;23.61;52.31;98519.50;8320286;28;20545;-80
2022/09/05 08:47:27;;;;;;;7.03;3.83;;;;;;;24.25;50.87;98527.88;8320904;28;20231;-80
2022/09/05 08:51:52;;;;;;;4.70;4.00;;;;;;;24.70;49.85;98530.75;8320133;28;20238;-82
2022/09/05 08:56:00;;;;;;;8.10;4.70;;;;;;;24.40;50.43;98526.47;8320182;28;20364;-79
2022/09/05 09:00:07;;;;;;;6.07;3.83;;;;;;;24.80;50.01;98519.28;8319748;28;20238;-81
2022/09/05 09:04:37;;;;;;;8.50;3.80;;;;;;;25.55;46.88;98525.31;8319642;28;20324;-83
2022/09/05 09:09:14;;;;;;;6.40;3.17;;;;;;;26.31;46.30;98524.91;8319671;28;20526;-82
2022/09/05 09:13:23;;;;;;;8.03;3.07;;;;;;;26.57;45.62;98526.72;8319580;28;20431;-83
2022/09/05 09:17:40;;;;;;;6.67;4.00;;;;;;;25.92;45.16;98516.44;8319188;28;20230;-79
2022/09/05 09:21:47;;;;;;;6.67;3.37;;;;;;;26.84;44.77;98516.94;8319107;28;20245;-84
2022/09/05 09:25:57;;;;;;;6.83;3.30;;;;;;;27.25;43.47;98502.03;8319359;28;20227;-81
2022/09/05 09:30:03;;;;;;;6.07;3.07;;;;;;;27.38;42.21;98506.91;8319217;28;20234;-82
2022/09/05 09:34:31;;;;;;;6.57;3.40;;;;;;;26.88;42.50;98511.19;8318164;28;20285;-82
2022/09/05 09:38:45;;;;;;;5.77;3.00;;;;;;;27.59;41.93;98511.78;8318926;28;20471;-81
2022/09/05 09:42:50;;;;;;;4.67;3.10;;;;;;;27.49;41.22;98495.09;8318500;28;20235;-83
2022/09/05 09:46:53;;;;;;;6.77;2.60;;;;;;;28.10;40.83;98495.69;8318500;28;20226;-84
2022/09/05 09:51:18;;;;;;;4.60;2.83;;;;;;;28.19;40.52;98497.34;8318516;28;20227;-84
2022/09/05 09:55:48;;;;;;;6.33;2.77;;;;;;;27.83;40.68;98499.50;8318523;28;20569;-80
2022/09/05 10:00:08;;;;;;;7.30;2.70;;;;;;;28.62;39.38;98495.31;8317776;28;20232;-83
2022/09/05 10:04:36;;;;;;;3.80;2.47;;;;;;;28.53;38.45;98485.69;8316988;28;20228;-85
2022/09/05 10:09:10;;;;;;;4.83;2.90;;;;;;;28.07;39.63;98491.53;8318831;28;20235;-84
2022/09/05 10:13:47;;;;;;;4.80;3.00;;;;;;;28.51;38.72;98487.66;8318695;28;20399;-82
2022/09/05 10:18:17;;;;;;;4.27;2.30;;;;;;;28.87;38.82;98473.94;8317161;28;20235;-83
2022/09/05 10:22:46;;;;;;;3.03;1.93;;;;;;;29.50;37.16;98469.47;8314118;28;20521;-85
2022/09/05 10:27:13;;;;;;;3.23;2.30;;;;;;;29.40;36.40;98463.53;8317447;28;20236;-89
2022/09/05 10:31:18;;;;;;;3.13;2.00;;;;;;;29.78;36.96;98463.63;8317474;28;20234;-86
2022/09/05 10:35:43;;;;;;;3.30;2.23;;;;;;;29.53;36.82;98455.78;8318074;28;20241;-87
2022/09/05 10:39:49;;;;;;;3.80;2.10;;;;;;;29.95;34.86;98450.94;8318373;28;20545;-84
2022/09/05 10:43:58;;;;;;;3.13;2.30;;;;;;;29.08;35.61;98446.66;8316545;28;20241;-84
2022/09/05 10:48:07;;;;;;;3.53;2.07;;;;;;;29.20;36.23;98445.28;8316642;28;20513;-83
2022/09/05 10:52:20;;;;;;;3.93;2.50;;;;;;;29.03;35.96;98439.22;8317461;28;20306;-83
2022/09/05 10:56:24;;;;;;;3.97;2.00;;;;;;;29.69;35.63;98433.47;8318352;28;20232;-85
2022/09/05 11:00:47;;;;;;;5.13;2.10;;;;;;;29.71;35.25;98428.78;8317384;28;20544;-84
2022/09/05 11:05:22;;;;;;;3.27;1.90;;;;;;;29.50;34.72;98426.78;8322377;28;20415;-82
2022/09/05 11:09:36;;;;;;;4.23;2.00;;;;;;;29.90;32.99;98432.81;8325408;28;20225;-86
2022/09/05 11:13:44;;;;;;;4.93;1.90;;;;;;;30.38;32.94;98422.69;8317841;28;20392;-80
2022/09/05 11:17:55;;;;;;;4.43;1.90;;;;;;;30.72;33.32;98417.78;8316717;28;20226;-80
2022/09/05 11:22:01;;;;;;;3.30;1.90;;;;;;;30.65;32.63;98415.03;8320435;28;20236;-80
2022/09/05 11:26:30;;;;;;;3.97;2.20;;;;;;;29.89;34.09;98406.28;8320053;28;20234;-82
2022/09/05 11:30:38;;;;;;;3.73;2.13;;;;;;;29.70;33.73;98402.25;8319643;28;20239;-83
2022/09/05 11:35:05;;;;;;;2.47;1.70;;;;;;;30.55;31.64;98403.81;8326133;28;20512;-84
2022/09/05 11:40:00;;;;;;;7.80;1.90;;;;;;;30.56;31.94;98394.78;8322268;28;20235;-84
2022/09/05 11:44:29;;;;;;;3.87;2.20;;;;;;;30.33;32.07;98395.72;8322054;28;20227;-84
2022/09/05 11:48:44;;;;;;;2.47;1.80;;;;;;;29.18;33.13;98398.47;8316285;28;20513;-82
2022/09/05 11:53:24;;;;;;;3.87;1.80;;;;;;;28.66;33.87;98395.38;8314349;28;20250;-80
2022/09/05 11:57:37;;;;;;;3.70;2.00;;;;;;;28.91;34.11;98402.44;8319693;28;20242;-84
2022/09/05 12:01:46;;;;;;;3.90;2.20;;;;;;;28.24;35.16;98409.00;8325598;28;20225;-84
2022/09/05 12:06:30;;;;;;;5.70;1.90;;;;;;;28.77;34.02;98404.00;8325129;28;20392;-84
2022/09/05 12:10:43;;;;;;;2.93;2.13;;;;;;;29.24;33.79;98406.63;8325469;28;20430;-86
2022/09/05 12:15:01;;;;;;;4.17;1.67;;;;;;;29.90;32.21;98400.78;8325234;28;20233;-85
2022/09/05 12:19:21;;;;;;;4.43;2.30;;;;;;;29.23;33.17;98396.13;8325812;28;20434;-85
2022/09/05 12:23:31;;;;;;;3.40;1.80;;;;;;;29.54;32.01;98393.38;8324937;28;20249;-84
2022/09/05 12:27:58;;;;;;;2.57;1.70;;;;;;;29.20;32.19;98388.47;8324415;28;20239;-80
2022/09/05 12:32:24;;;;;;;3.43;1.70;;;;;;;29.57;31.67;98384.22;8324611;28;20409;-81
2022/09/05 12:36:49;;;;;;;2.03;1.70;;;;;;;29.69;31.99;98388.09;8324551;28;20238;-81
2022/09/05 12:41:14;;;;;;;5.07;1.80;;;;;;;28.64;33.68;98372.59;8325434;28;20229;-85
2022/09/05 12:45:43;;;;;;;10.07;1.60;;;;;;;28.36;35.56;98366.84;8325544;28;20224;-84
2022/09/05 12:49:56;;;;;;;2.97;1.67;;;;;;;29.30;32.74;98361.56;8326191;28;20226;-82
2022/09/05 12:54:09;;;;;;;3.47;1.50;;;;;;;30.10;31.93;98362.88;8325998;28;20226;-86
2022/09/05 12:58:35;;;;;;;2.70;1.50;;;;;;;30.53;30.27;98357.72;8325804;28;20236;-86
2022/09/05 13:03:01;;;;;;;3.47;1.47;;;;;;;30.64;30.74;98349.25;8325200;28;20237;-84
2022/09/05 13:07:35;;;;;;;4.07;1.50;;;;;;;30.36;29.28;98347.25;8325714;28;20230;-87
2022/09/05 13:11:45;;;;;;;2.13;1.47;;;;;;;30.47;29.70;98329.91;8310277;28;20261;-85
2022/09/05 13:16:09;;;;;;;3.03;1.60;;;;;;;30.54;30.28;98330.84;8321904;28;20232;-86
2022/09/05 13:20:21;;;;;;;2.47;1.50;;;;;;;30.37;29.86;98326.72;8321616;28;20427;-88
2022/09/05 13:24:29;;;;;;;1.97;1.40;;;;;;;30.16;30.88;98324.78;8320061;28;20236;-84
2022/09/05 13:28:40;;;;;;;3.63;1.50;;;;;;;30.98;30.39;98310.38;8311521;28;20228;-84
2022/09/05 13:32:45;;;;;;;3.17;1.50;;;;;;;31.31;28.93;98304.50;8320694;28;20325;-84
2022/09/05 13:37:16;;;;;;;3.10;1.40;;;;;;;30.85;28.61;98297.66;8320433;28;20232;-85
2022/09/05 13:41:43;;;;;;;3.03;1.23;;;;;;;31.03;28.96;98299.09;8320984;28;20239;-90
2022/09/05 13:46:09;;;;;;;1.63;1.30;;;;;;;30.99;28.07;98301.31;8319584;28;20242;-84
2022/09/05 13:50:21;;;;;;;1.77;1.30;;;;;;;31.05;28.26;98289.03;8318540;28;20256;-84
2022/09/05 13:54:38;;;;;;;2.90;1.10;;;;;;;30.97;27.57;98281.97;8318911;28;20526;-84
2022/09/05 13:58:43;;;;;;;3.63;1.50;;;;;;;30.94;28.11;98282.38;8318328;28;20235;-82
2022/09/05 14:03:28;;;;;;;1.67;1.40;;;;;;;30.63;28.11;98279.94;8317422;28;20232;-84
2022/09/05 14:08:17;;;;;;;2.97;1.30;;;;;;;30.02;29.17;98281.00;8312526;28;20232;-83
2022/09/05 14:12:31;;;;;;;3.67;1.30;;;;;;;30.55;29.26;98272.88;8286817;28;20230;-83
2022/09/05 14:16:37;;;;;;;2.20;1.10;;;;;;;30.54;27.93;98272.03;8317451;28;20432;-85
2022/09/05 14:21:18;;;;;;;2.50;1.30;;;;;;;30.70;27.52;98257.59;8315979;28;20276;-85
2022/09/05 14:25:23;;;;;;;3.07;1.20;;;;;;;30.34;26.64;98257.63;8317691;28;20236;-83
2022/09/05 14:29:34;;;;;;;2.90;1.30;;;;;;;30.15;26.48;98257.16;8318099;28;20231;-82
2022/09/05 14:33:53;;;;;;;2.17;1.20;;;;;;;30.59;28.53;98250.91;8317846;28;20239;-84
2022/09/05 14:38:26;;;;;;;2.53;1.30;;;;;;;30.56;27.34;98248.63;8316571;28;20240;-83
2022/09/05 14:42:50;;;;;;;3.80;1.20;;;;;;;30.04;26.58;98254.13;8316891;28;20297;-82
2022/09/05 14:47:32;;;;;;;1.80;1.30;;;;;;;30.08;26.49;98245.56;8316434;28;20297;-84
2022/09/05 14:51:45;;;;;;;2.13;1.10;;;;;;;30.27;27.43;98246.00;8288490;28;20231;-83
2022/09/05 14:55:53;;;;;;;1.57;1.10;;;;;;;30.28;27.81;98242.31;8316985;28;20231;-82
2022/09/05 15:00:19;;;;;;;2.00;1.00;;;;;;;30.51;27.99;98237.69;8316787;28;20234;-86
2022/09/05 15:04:47;;;;;;;1.37;0.90;;;;;;;30.25;28.23;98237.34;8317499;28;20232;-81
2022/09/05 15:08:58;;;;;;;2.03;1.30;;;;;;;29.59;27.34;98243.44;8315563;28;20228;-82
2022/09/05 15:13:22;;;;;;;2.93;1.20;;;;;;;29.32;27.98;98229.72;8315482;28;20239;-79
2022/09/05 15:17:29;;;;;;;1.13;1.07;;;;;;;29.03;28.15;98241.09;8315402;28;20230;-80
2022/09/05 15:21:36;;;;;;;1.33;1.00;;;;;;;29.09;29.05;98240.34;8314968;28;20427;-82
2022/09/05 15:25:45;;;;;;;2.03;1.10;;;;;;;29.28;30.23;98240.91;8314916;28;20652;-81
2022/09/05 15:29:54;;;;;;;1.37;1.00;;;;;;;29.11;29.45;98235.69;8314846;28;20281;-81
2022/09/05 15:34:23;;;;;;;1.60;1.20;;;;;;;29.00;29.61;98231.63;8314686;28;20233;-82
2022/09/05 15:38:30;;;;;;;1.50;1.20;;;;;;;28.81;29.43;98224.13;8315047;28;20235;-82
2022/09/05 15:42:56;;;;;;;2.87;1.37;;;;;;;28.70;29.52;98224.53;8314373;28;20234;-80
2022/09/05 15:47:03;;;;;;;2.00;1.00;;;;;;;28.67;30.68;98228.34;8314942;28;20513;-81
2022/09/05 15:51:17;;;;;;;2.03;1.30;;;;;;;28.30;31.21;98224.56;8314815;28;20252;-85
2022/09/05 15:55:23;;;;;;;2.90;1.20;;;;;;;28.09;31.75;98219.84;8314870;28;20235;-84
2022/09/05 15:59:30;;;;;;;1.47;1.20;;;;;;;27.94;32.53;98218.91;8314959;28;20228;-83
2022/09/05 16:03:33;;;;;;;2.10;1.50;;;;;;;27.83;32.93;98223.56;8314416;28;20236;-82
2022/09/05 16:07:59;;;;;;;1.97;1.20;;;;;;;27.69;33.38;98214.47;8313903;28;20235;-86
2022/09/05 16:12:33;;;;;;;1.63;1.10;;;;;;;27.67;33.35;98208.50;8314145;28;20224;-86
2022/09/05 16:16:36;;;;;;;1.87;1.40;;;;;;;27.59;33.68;98210.38;8313856;28;20235;-84
2022/09/05 16:21:02;;;;;;;1.43;1.13;;;;;;;27.53;34.00;98203.91;8313806;28;20613;-85
2022/09/05 16:25:29;;;;;;;1.43;1.30;;;;;;;27.48;33.88;98201.75;8313790;28;20231;-87
2022/09/05 16:29:39;;;;;;;1.53;1.43;;;;;;;27.50;34.50;98207.72;8313894;28;20504;-85
2022/09/05 16:33:42;;;;;;;3.13;1.40;;;;;;;27.47;34.06;98201.91;8313545;28;20239;-84
2022/09/05 16:37:49;;;;;;;3.33;1.40;;;;;;;27.45;34.62;98204.72;8313650;28;20552;-82
2022/09/05 16:41:53;;;;;;;1.33;1.13;;;;;;;27.41;34.32;98198.09;8312963;28;20235;-87
2022/09/05 16:46:07;;;;;;;3.33;1.47;;;;;;;27.35;33.90;98190.81;8318537;28;20231;-84
2022/09/05 16:50:16;;;;;;;3.03;1.50;;;;;;;27.19;33.91;98191.63;8319697;28;20549;-90
2022/09/05 16:54:28;;;;;;;2.60;1.50;;;;;;;27.12;34.49;98193.31;8319173;28;20236;-87
2022/09/05 16:58:34;;;;;;;3.93;1.50;;;;;;;27.05;34.92;98193.13;8319234;28;20431;-85
2022/09/05 17:02:42;;;;;;;2.13;1.60;;;;;;;27.08;35.32;98184.84;8319077;28;20250;-83
2022/09/05 17:06:50;;;;;;;9.20;1.97;;;;;;;27.04;35.71;98183.50;8319930;28;20244;-85
2022/09/05 17:11:01;;;;;;;2.40;1.77;;;;;;;27.00;35.35;98184.84;8319850;28;20223;-88
2022/09/05 17:15:10;;;;;;;3.27;1.50;;;;;;;26.92;35.43;98179.53;8321287;28;20246;-87
2022/09/05 17:19:20;;;;;;;2.67;2.17;;;;;;;26.83;35.30;98181.38;8319293;28;20236;-88
2022/09/05 17:23:28;;;;;;;2.30;1.83;;;;;;;26.79;35.55;98177.38;8321032;28;20236;-85
2022/09/05 17:27:51;;;;;;;9.10;6.90;;;;;;;26.74;36.18;98174.38;8323223;28;20238;-85
2022/09/05 17:32:17;;;;;;;6.63;4.47;;;;;;;26.66;36.62;98169.09;8321684;28;20266;-86
2022/09/05 17:36:26;;;;;;;5.10;3.13;;;;;;;26.59;37.14;98165.38;8318180;28;20550;-83
2022/09/05 17:41:04;;;;;;;3.03;2.10;;;;;;;26.48;38.00;98170.03;8317683;28;20232;-82
2022/09/05 17:45:12;;;;;;;5.20;2.33;;;;;;;26.41;38.74;98173.50;8317181;28;20252;-84
2022/09/05 17:49:39;;;;;;;3.50;1.97;;;;;;;26.33;38.36;98172.50;8317837;28;20235;-84
2022/09/05 17:54:25;;;;;;;2.90;1.60;;;;;;;26.14;39.97;98173.63;8317070;28;20227;-83
2022/09/05 17:58:30;;;;;;;3.73;1.77;;;;;;;26.12;39.35;98174.75;8316864;28;20234;-80
2022/09/05 18:02:54;;;;;;;2.00;1.57;;;;;;;26.04;39.96;98178.22;8316545;28;20306;-78
2022/09/05 18:06:57;;;;;;;5.00;2.40;;;;;;;25.93;40.83;98175.84;8317037;28;20239;-83
2022/09/05 18:11:07;;;;;;;5.97;2.30;;;;;;;25.82;41.18;98173.50;8316257;28;20456;-80
2022/09/05 18:15:17;;;;;;;16.17;4.97;;;;;;;25.77;42.22;98173.94;8317127;28;20234;-81
2022/09/05 18:19:54;;;;;;;9.80;3.67;;;;;;;25.75;41.78;98170.63;8316792;28;20224;-82
2022/09/05 18:24:02;;;;;;;11.40;4.03;;;;;;;25.68;42.51;98183.72;8314413;28;20231;-82
2022/09/05 18:28:21;;;;;;;4.87;3.30;;;;;;;25.60;45.06;98185.47;8316674;28;20455;-81
2022/09/05 18:32:38;;;;;;;13.07;4.20;;;;;;;25.51;46.55;98187.25;8316189;28;20239;-78
2022/09/05 18:36:42;;;;;;;7.87;4.87;;;;;;;25.40;46.76;98193.66;8315969;28;20232;-77
2022/09/05 18:40:51;;;;;;;8.97;5.83;;;;;;;25.31;47.45;98195.41;8315842;28;20231;-78
2022/09/05 18:44:58;;;;;;;8.20;5.23;;;;;;;25.23;47.96;98192.72;8315227;28;20230;-78
2022/09/05 18:49:08;;;;;;;8.30;5.17;;;;;;;25.15;48.34;98198.78;8315600;28;20515;-77
2022/09/05 18:53:33;;;;;;;7.67;4.97;;;;;;;25.06;48.68;98196.22;8315338;28;20234;-77
2022/09/05 18:57:36;;;;;;;6.37;4.77;;;;;;;24.96;49.10;98193.66;8315371;28;20236;-78
2022/09/05 19:01:48;;;;;;;8.50;4.50;;;;;;;24.86;49.30;98193.72;8315185;28;20291;-78
2022/09/05 19:05:54;;;;;;;4.30;3.40;;;;;;;24.80;49.64;98196.19;8313965;28;20236;-78
2022/09/05 19:10:24;;;;;;;6.73;3.57;;;;;;;24.67;49.93;98199.19;8314917;28;20226;-78
2022/09/05 19:14:45;;;;;;;11.00;7.53;;;;;;;24.67;49.99;98196.56;8314870;28;20259;-78
2022/09/05 19:19:07;;;;;;;9.90;7.67;;;;;;;24.57;50.42;98201.94;8314407;28;20529;-76
2022/09/05 19:23:13;;;;;;;9.03;4.53;;;;;;;24.50;50.79;98199.03;8314742;28;20233;-77
2022/09/05 19:27:17;;;;;;;7.90;3.67;;;;;;;24.45;50.98;98200.47;8314793;28;20409;-77
2022/09/05 19:31:41;;;;;;;7.70;3.40;;;;;;;24.36;51.62;98189.78;8314365;28;20225;-77
2022/09/05 19:36:07;;;;;;;7.40;2.90;;;;;;;24.32;51.26;98195.53;8313841;28;20310;-77
2022/09/05 19:40:33;;;;;;;6.90;3.10;;;;;;;24.16;51.08;98201.47;8314222;28;20224;-77
2022/09/05 19:44:59;;;;;;;4.60;2.90;;;;;;;24.11;51.71;98195.81;8313695;28;20237;-76
2022/09/05 19:49:23;;;;;;;5.93;2.80;;;;;;;24.02;51.41;98192.22;8314107;28;20226;-77
2022/09/05 19:53:27;;;;;;;6.60;2.97;;;;;;;23.99;52.14;98189.91;8314133;28;20253;-76
2022/09/05 19:57:30;;;;;;;6.90;3.00;;;;;;;23.88;52.20;98182.97;8314057;28;20225;-75
2022/09/05 20:01:33;;;;;;;9.37;2.97;;;;;;;23.84;52.38;98192.19;8313857;28;20231;-76
2022/09/05 20:05:38;;;;;;;4.53;2.90;;;;;;;23.77;51.95;98183.97;8314011;28;20531;-76
2022/09/05 20:09:45;;;;;;;8.80;3.10;;;;;;;23.72;52.54;98180.09;8313789;28;20227;-76
2022/09/05 20:13:48;;;;;;;6.13;3.50;;;;;;;23.64;52.30;98174.72;8313328;28;20539;-75
2022/09/05 20:17:53;;;;;;;7.20;4.43;;;;;;;23.60;52.81;98169.72;8315766;28;20324;-75